Time;durP1;ratioP1;P1;durP2;ratioP2;P2;SDS_P1;SDS_P2;PMS_P1;PMS_P2;Temp;Humidity;BMP_temperature;BMP_pressure;BME280_temperature;BME280_humidity;BME280_pressure;Samples;Min_cycle;Max_cycle;Signal;HPM_P1;HPM_P2
2024/03/09 06:42:11;;;;;;;13.60;9.15;;;;;;;;;;10514999;28;20496;-84
2024/03/09 06:47:13;;;;;;;;;;;;;;;;;;10538670;28;20025;-84
2024/03/09 06:52:15;;;;;;;15.25;10.60;;;;;;;;;;10502794;28;20428;-85
2024/03/09 06:57:16;;;;;;;22.73;16.40;;;;;;;;;;10501962;28;20530;-84
2024/03/09 07:02:19;;;;;;;14.68;10.20;;;;;;;;;;10503354;28;20044;-84
2024/03/09 07:07:20;;;;;;;14.82;10.15;;;;;;;;;;10503447;28;20031;-84
2024/03/09 07:12:21;;;;;;;14.10;10.23;;;;;;;;;;10498797;28;20032;-84
2024/03/09 07:17:22;;;;;;;15.52;11.48;;;;;;;;;;10500583;28;20036;-85
2024/03/09 07:22:23;;;;;;;13.65;10.73;;;;;;;;;;10502033;28;20128;-85
2024/03/09 07:27:24;;;;;;;16.73;12.85;;;;;;;;;;10503119;28;20055;-85
2024/03/09 07:32:25;;;;;;;;;;;;;;;;;;10503163;28;20120;-85
2024/03/09 07:37:26;;;;;;;17.38;12.95;;;;;;;;;;10497628;28;19926;-85
2024/03/09 07:42:30;;;;;;;16.70;12.85;;;;;;;;;;10502154;28;20028;-84
2024/03/09 07:47:31;;;;;;;23.40;18.70;;;;;;;;;;10500816;28;20051;-83
2024/03/09 07:52:32;;;;;;;;;;;;;;;;;;10483757;28;20108;-81
2024/03/09 07:57:33;;;;;;;12.48;9.98;;;;;;;;;;10472772;28;19926;-82
2024/03/09 08:02:35;;;;;;;;;;;;;;;;;;10483800;28;20041;-81
2024/03/09 08:07:35;;;;;;;;;;;;;;;;;;10486104;28;19913;-81
2024/03/09 08:12:37;;;;;;;18.25;13.63;;;;;;;;;;10478157;28;19905;-81
2024/03/09 08:17:37;;;;;;;;;;;;;;;;;;10475464;28;20025;-82
2024/03/09 08:22:40;;;;;;;15.25;12.32;;;;;;;;;;10474554;28;19908;-83
2024/03/09 08:27:41;;;;;;;15.60;11.93;;;;;;;;;;10475111;28;20079;-83
2024/03/09 08:32:44;;;;;;;17.23;13.27;;;;;;;;;;10474138;28;20025;-83
2024/03/09 08:37:46;;;;;;;15.30;11.68;;;;;;;;;;10472295;28;20039;-83
2024/03/09 08:42:48;;;;;;;15.02;11.40;;;;;;;;;;10467016;28;20150;-83
2024/03/09 08:47:50;;;;;;;16.55;13.45;;;;;;;;;;10465300;28;20093;-83
2024/03/09 08:52:52;;;;;;;15.27;12.63;;;;;;;;;;10465126;28;20053;-83
2024/03/09 08:57:53;;;;;;;14.35;11.85;;;;;;;;;;10470755;28;20044;-81
2024/03/09 09:02:56;;;;;;;;;;;;;;;;;;10474174;28;20100;-83
2024/03/09 09:07:59;;;;;;;16.65;12.82;;;;;;;;;;10497797;28;19943;-81
2024/03/09 09:13:00;;;;;;;15.30;12.50;;;;;;;;;;10495347;28;20040;-83
2024/03/09 09:18:01;;;;;;;16.73;13.82;;;;;;;;;;10471001;28;20519;-83
2024/03/09 09:23:05;;;;;;;17.73;15.02;;;;;;;;;;10461359;28;20057;-82
2024/03/09 09:28:08;;;;;;;13.15;11.10;;;;;;;;;;10471213;28;20078;-82
2024/03/09 09:33:09;;;;;;;12.10;10.77;;;;;;;;;;10474108;28;20104;-82
2024/03/09 09:38:17;;;;;;;10.77;8.95;;;;;;;;;;10476408;28;20191;-83
2024/03/09 09:43:19;;;;;;;13.98;11.13;;;;;;;;;;10480212;28;20104;-83
2024/03/09 09:48:20;;;;;;;11.02;9.88;;;;;;;;;;10480873;28;20112;-83
2024/03/09 09:53:21;;;;;;;20.30;16.88;;;;;;;;;;10491546;28;20025;-84
2024/03/09 09:58:22;;;;;;;16.80;14.38;;;;;;;;;;10498152;28;20119;-84
2024/03/09 10:03:23;;;;;;;11.38;9.77;;;;;;;;;;10499132;28;20025;-83
2024/03/09 10:08:24;;;;;;;14.70;11.45;;;;;;;;;;10493125;28;20431;-84
2024/03/09 10:13:26;;;;;;;14.57;12.60;;;;;;;;;;10475021;28;20079;-83
2024/03/09 10:18:27;;;;;;;12.80;10.77;;;;;;;;;;10473106;28;20124;-84
2024/03/09 10:23:29;;;;;;;17.55;13.48;;;;;;;;;;10494641;28;20032;-83
2024/03/09 10:28:31;;;;;;;20.60;15.90;;;;;;;;;;10487855;28;20489;-83
2024/03/09 10:33:34;;;;;;;13.57;11.48;;;;;;;;;;10473714;28;20025;-84
2024/03/09 10:38:38;;;;;;;15.60;12.38;;;;;;;;;;10477176;28;20396;-83
2024/03/09 10:43:40;;;;;;;20.10;17.17;;;;;;;;;;10488237;28;20033;-83
2024/03/09 10:48:44;;;;;;;16.25;13.45;;;;;;;;;;10498651;28;20060;-83
2024/03/09 10:53:50;;;;;;;16.85;14.32;;;;;;;;;;10479257;28;20515;-84
2024/03/09 10:58:51;;;;;;;15.68;12.20;;;;;;;;;;10474739;28;20032;-85
2024/03/09 11:03:52;;;;;;;;;;;;;;;;;;10474905;28;20056;-83
2024/03/09 11:08:54;;;;;;;16.27;13.05;;;;;;;;;;10490864;28;20388;-84
2024/03/09 11:13:55;;;;;;;15.50;13.20;;;;;;;;;;10477760;28;20033;-84
2024/03/09 11:18:56;;;;;;;;;;;;;;;;;;10471639;28;20536;-82
2024/03/09 11:23:59;;;;;;;16.17;12.48;;;;;;;;;;10470584;28;20307;-84
2024/03/09 11:29:01;;;;;;;15.77;11.63;;;;;;;;;;10478590;28;20045;-84
2024/03/09 11:34:15;;;;;;;15.60;13.20;;;;;;;;;;10490836;28;20044;-83
2024/03/09 11:39:19;;;;;;;14.02;11.07;;;;;;;;;;10499786;28;20460;-84
2024/03/09 11:44:21;;;;;;;16.15;13.10;;;;;;;;;;10479640;28;20041;-83
2024/03/09 11:49:27;;;;;;;16.42;14.05;;;;;;;;;;10476651;28;20046;-84
2024/03/09 11:54:29;;;;;;;14.20;12.07;;;;;;;;;;10477648;28;20073;-84
2024/03/09 11:59:30;;;;;;;13.55;9.23;;;;;;;;;;10477353;28;20434;-84
2024/03/09 12:04:32;;;;;;;;;;;;;;;;;;10478190;28;20146;-84
2024/03/09 12:09:33;;;;;;;14.82;10.85;;;;;;;;;;10474998;28;19909;-84
2024/03/09 12:14:34;;;;;;;15.90;11.52;;;;;;;;;;10477769;28;20338;-84
2024/03/09 12:19:36;;;;;;;13.50;10.73;;;;;;;;;;10478372;28;20137;-84
2024/03/09 12:24:37;;;;;;;14.73;10.48;;;;;;;;;;10474635;28;20024;-84
2024/03/09 12:29:38;;;;;;;15.77;11.38;;;;;;;;;;10475303;28;20044;-83
2024/03/09 12:34:40;;;;;;;13.63;11.15;;;;;;;;;;10480219;28;20021;-84
2024/03/09 12:39:46;;;;;;;13.07;10.95;;;;;;;;;;10495223;28;20021;-83
2024/03/09 12:44:47;;;;;;;8.55;6.68;;;;;;;;;;10504058;28;20112;-82
2024/03/09 12:49:49;;;;;;;9.55;6.97;;;;;;;;;;10494724;28;20398;-84
2024/03/09 12:54:50;;;;;;;8.57;6.65;;;;;;;;;;10504458;28;20048;-82
2024/03/09 12:59:51;;;;;;;13.00;8.70;;;;;;;;;;10492125;28;20066;-83
2024/03/09 13:04:52;;;;;;;14.45;11.93;;;;;;;;;;10474946;28;20048;-83
2024/03/09 13:09:53;;;;;;;17.70;12.20;;;;;;;;;;10472980;28;20029;-83
2024/03/09 13:14:54;;;;;;;11.05;9.10;;;;;;;;;;10473822;28;20017;-83
2024/03/09 13:19:57;;;;;;;9.82;8.38;;;;;;;;;;10477607;28;20092;-83
2024/03/09 13:24:58;;;;;;;13.27;10.32;;;;;;;;;;10478283;28;20022;-84
2024/03/09 13:30:00;;;;;;;16.75;14.05;;;;;;;;;;10473250;28;20458;-84
2024/03/09 13:35:06;;;;;;;12.77;10.07;;;;;;;;;;10474136;28;20017;-83
2024/03/09 13:40:11;;;;;;;15.68;11.60;;;;;;;;;;10474318;28;20033;-84
2024/03/09 13:45:12;;;;;;;14.65;11.10;;;;;;;;;;10479841;28;20090;-84
2024/03/09 13:50:14;;;;;;;15.57;12.30;;;;;;;;;;10482395;28;20503;-84
2024/03/09 13:55:42;;;;;;;14.63;10.43;;;;;;;;;;10467483;22;20121;-81
2024/03/09 14:01:03;;;;;;;11.75;9.27;;;;;;;;;;10383491;28;20131;-81
2024/03/09 14:06:10;;;;;;;11.25;9.95;;;;;;;;;;10398461;28;20046;-81
2024/03/09 14:11:17;;;;;;;15.45;12.00;;;;;;;;;;10436603;28;20034;-81
2024/03/09 14:16:23;;;;;;;11.63;9.25;;;;;;;;;;10423209;28;20040;-82
2024/03/09 14:21:28;;;;;;;13.45;10.55;;;;;;;;;;10423522;28;20018;-82
2024/03/09 14:26:30;;;;;;;10.95;9.50;;;;;;;;;;10394682;28;20026;-85
2024/03/09 14:31:34;;;;;;;12.07;9.90;;;;;;;;;;10389733;28;20033;-85
2024/03/09 14:36:39;;;;;;;16.33;10.48;;;;;;;;;;10393061;28;20038;-85
2024/03/09 14:42:05;;;;;;;15.82;13.45;;;;;;;;;;10404669;28;20030;-85
2024/03/09 14:47:48;;;;;;;9.18;7.60;;;;;;;;;;10389133;28;20026;-85
2024/03/09 14:52:53;;;;;;;10.35;8.73;;;;;;;;;;10400270;28;20097;-85
2024/03/09 14:58:16;;;;;;;13.68;11.13;;;;;;;;;;10386900;28;20029;-85
2024/03/09 15:03:38;;;;;;;14.27;10.75;;;;;;;;;;10394140;28;20030;-85
2024/03/09 15:08:58;;;;;;;15.55;12.13;;;;;;;;;;10388174;28;20065;-81
2024/03/09 15:14:04;;;;;;;12.88;10.48;;;;;;;;;;10405561;28;20036;-81
2024/03/09 15:19:10;;;;;;;10.48;7.82;;;;;;;;;;10404744;28;20034;-81
2024/03/09 15:24:11;;;;;;;12.90;9.50;;;;;;;;;;10405069;28;20030;-84
2024/03/09 15:29:13;;;;;;;13.20;10.85;;;;;;;;;;10392517;28;20029;-85
2024/03/09 15:34:15;;;;;;;13.30;11.40;;;;;;;;;;10408778;28;20426;-85
2024/03/09 15:39:50;;;;;;;14.60;11.52;;;;;;;;;;10391731;28;20026;-86
2024/03/09 15:44:53;;;;;;;9.25;8.10;;;;;;;;;;10387409;28;20088;-86
2024/03/09 15:49:56;;;;;;;12.10;10.45;;;;;;;;;;10394341;28;20145;-85
2024/03/09 15:55:18;;;;;;;11.20;9.25;;;;;;;;;;10407899;28;20030;-85
2024/03/09 16:00:24;;;;;;;11.80;10.10;;;;;;;;;;10390702;28;20499;-85
2024/03/09 16:05:38;;;;;;;15.02;12.23;;;;;;;;;;10395689;28;20058;-85
2024/03/09 16:10:41;;;;;;;13.95;11.90;;;;;;;;;;10409310;28;20038;-85
2024/03/09 16:16:06;;;;;;;11.55;9.40;;;;;;;;;;10412063;28;20056;-82
2024/03/09 16:21:08;;;;;;;11.48;10.00;;;;;;;;;;10426298;28;20042;-82
2024/03/09 16:26:11;;;;;;;10.70;8.52;;;;;;;;;;10413120;28;20049;-82
2024/03/09 16:31:12;;;;;;;18.00;13.63;;;;;;;;;;10410414;28;20026;-83
2024/03/09 16:36:21;;;;;;;12.63;10.73;;;;;;;;;;10413790;28;20085;-85
2024/03/09 16:41:38;;;;;;;11.70;8.23;;;;;;;;;;10402331;28;20041;-86
2024/03/09 16:46:43;;;;;;;12.35;10.80;;;;;;;;;;10409453;28;20034;-83
2024/03/09 16:51:53;;;;;;;14.77;12.38;;;;;;;;;;10395457;28;20040;-83
2024/03/09 16:57:00;;;;;;;11.15;9.20;;;;;;;;;;10388146;28;20458;-82
2024/03/09 17:02:04;;;;;;;12.30;9.50;;;;;;;;;;10401297;28;20022;-82
2024/03/09 17:07:11;;;;;;;21.00;16.10;;;;;;;;;;10408638;28;20192;-86
2024/03/09 17:12:12;;;;;;;14.90;12.20;;;;;;;;;;10394449;28;20021;-82
2024/03/09 17:17:13;;;;;;;13.05;10.27;;;;;;;;;;10425444;28;20022;-85
2024/03/09 17:22:22;;;;;;;16.65;13.88;;;;;;;;;;10392598;28;20042;-86
2024/03/09 17:27:28;;;;;;;13.65;10.25;;;;;;;;;;10412194;28;20110;-86
2024/03/09 17:32:37;;;;;;;10.05;8.25;;;;;;;;;;10395931;28;20038;-85
2024/03/09 17:37:39;;;;;;;10.52;8.52;;;;;;;;;;10402638;28;20389;-81
2024/03/09 17:43:03;;;;;;;17.45;12.05;;;;;;;;;;10385460;28;20461;-86
2024/03/09 17:48:10;;;;;;;13.70;10.25;;;;;;;;;;10401700;28;20033;-81
2024/03/09 17:53:32;;;;;;;12.00;10.10;;;;;;;;;;10399659;28;20203;-83
2024/03/09 17:58:36;;;;;;;15.10;12.98;;;;;;;;;;10419090;28;20044;-83
2024/03/09 18:03:38;;;;;;;14.07;10.23;;;;;;;;;;10417761;28;20038;-84
2024/03/09 18:08:39;;;;;;;15.73;12.82;;;;;;;;;;10409906;28;20133;-82
2024/03/09 18:13:40;;;;;;;17.25;12.95;;;;;;;;;;10420296;28;20022;-82
2024/03/09 18:18:44;;;;;;;16.10;11.93;;;;;;;;;;10403454;28;20021;-81
2024/03/09 18:23:45;;;;;;;16.80;12.57;;;;;;;;;;10416167;28;20022;-82
2024/03/09 18:28:46;;;;;;;16.10;13.52;;;;;;;;;;10420723;28;20060;-83
2024/03/09 18:33:49;;;;;;;11.52;9.27;;;;;;;;;;10421090;28;20133;-83
2024/03/09 18:38:53;;;;;;;12.50;10.18;;;;;;;;;;10417927;28;20022;-81
2024/03/09 18:43:59;;;;;;;10.90;8.80;;;;;;;;;;10419637;28;20055;-82
2024/03/09 18:49:02;;;;;;;13.25;10.38;;;;;;;;;;10418411;28;20115;-81
2024/03/09 18:54:03;;;;;;;14.32;9.88;;;;;;;;;;10404952;28;20501;-80
2024/03/09 18:59:06;;;;;;;17.10;13.95;;;;;;;;;;10405213;28;20037;-85
2024/03/09 19:04:08;;;;;;;15.90;13.07;;;;;;;;;;10397962;28;20030;-85
2024/03/09 19:09:12;;;;;;;16.42;14.10;;;;;;;;;;10399653;28;20026;-81
2024/03/09 19:14:13;;;;;;;20.75;15.60;;;;;;;;;;10419889;28;20379;-82
2024/03/09 19:19:14;;;;;;;;;;;;;;;;;;10387102;28;20069;-85
2024/03/09 19:24:15;;;;;;;7.03;5.97;;;;;;;;;;10393215;28;20342;-81
2024/03/09 19:29:16;;;;;;;9.25;7.75;;;;;;;;;;10415305;28;20486;-82
2024/03/09 19:34:20;;;;;;;10.05;8.65;;;;;;;;;;10397749;28;20061;-85
2024/03/09 19:39:27;;;;;;;8.98;7.55;;;;;;;;;;10382425;28;20026;-85
2024/03/09 19:44:28;;;;;;;10.75;9.25;;;;;;;;;;10399345;28;20032;-81
2024/03/09 19:49:29;;;;;;;10.25;8.68;;;;;;;;;;10421178;28;20026;-82
2024/03/09 19:54:30;;;;;;;13.70;12.07;;;;;;;;;;10425837;23;20042;-83
2024/03/09 19:59:32;;;;;;;8.43;6.72;;;;;;;;;;10403312;28;20033;-83
2024/03/09 20:04:33;;;;;;;6.78;6.07;;;;;;;;;;10405281;28;20038;-83
